Time;durP1;ratioP1;P1;durP2;ratioP2;P2;SDS_P1;SDS_P2;PMS_P1;PMS_P2;Temp;Humidity;BMP_temperature;BMP_pressure;BME280_temperature;BME280_humidity;BME280_pressure;Samples;Min_cycle;Max_cycle;Signal;HPM_P1;HPM_P2
2022/03/01 00:00:42;;;;;;;5.67;3.83;;;-3275.70;53.90;;;;;;6273489;28;20222;-59
2022/03/01 00:03:43;;;;;;;5.10;2.90;;;-3275.70;53.90;;;;;;6271381;28;20296;-60
2022/03/01 00:06:43;;;;;;;4.93;3.20;;;-3275.70;53.90;;;;;;6247968;28;20190;-59
2022/03/01 00:09:44;;;;;;;4.43;3.03;;;-3275.70;53.60;;;;;;6231066;28;20201;-59
2022/03/01 00:12:45;;;;;;;5.10;2.97;;;-3275.70;53.90;;;;;;6248342;28;20233;-59
2022/03/01 00:15:46;;;;;;;5.77;3.63;;;-3275.70;53.70;;;;;;6248485;28;20180;-59
2022/03/01 00:18:47;;;;;;;5.77;3.47;;;-3275.70;54.00;;;;;;6231891;28;20233;-59
2022/03/01 00:21:48;;;;;;;6.13;3.10;;;-3275.70;54.30;;;;;;6231943;28;20186;-59
2022/03/01 00:24:49;;;;;;;5.90;3.13;;;-3275.70;54.60;;;;;;6230318;28;20226;-59
2022/03/01 00:27:49;;;;;;;5.60;2.87;;;-3275.60;54.80;;;;;;6245970;28;20243;-59
2022/03/01 00:30:50;;;;;;;7.80;3.97;;;-3275.60;55.10;;;;;;6245676;28;20297;-59
2022/03/01 00:33:51;;;;;;;5.07;3.60;;;-3275.60;55.70;;;;;;6230507;28;20193;-59
2022/03/01 00:36:52;;;;;;;5.43;3.27;;;-3275.50;56.00;;;;;;6230556;28;20183;-59
2022/03/01 00:39:53;;;;;;;4.47;2.97;;;-3275.40;56.00;;;;;;6214243;28;20194;-59
2022/03/01 00:42:54;;;;;;;5.57;3.47;;;-3275.40;56.20;;;;;;6229557;28;20209;-59
2022/03/01 00:45:55;;;;;;;3.77;3.10;;;-3275.30;56.50;;;;;;6264069;28;20206;-59
2022/03/01 00:48:57;;;;;;;4.40;3.00;;;-3275.30;56.80;;;;;;6239069;28;20213;-59
2022/03/01 00:51:58;;;;;;;4.90;3.30;;;-3275.30;56.80;;;;;;6224007;28;20226;-56
2022/03/01 00:54:58;;;;;;;3.70;2.83;;;-3275.30;56.80;;;;;;6239674;28;20214;-57
2022/03/01 00:58:00;;;;;;;5.73;2.87;;;-3275.30;56.80;;;;;;6232072;28;20284;-56
2022/03/01 01:01:01;;;;;;;5.37;3.23;;;-3275.20;56.80;;;;;;6231369;28;20210;-56
2022/03/01 01:04:01;;;;;;;5.90;3.03;;;-3275.30;56.70;;;;;;6248436;28;20197;-56
2022/03/01 01:07:02;;;;;;;4.47;3.17;;;-3275.20;57.40;;;;;;6231393;28;20201;-56
2022/03/01 01:10:05;;;;;;;6.23;3.53;;;-3275.10;58.00;;;;;;6231836;28;20204;-53
2022/03/01 01:13:05;;;;;;;6.77;3.77;;;-3275.00;58.60;;;;;;6232276;28;20227;-52
2022/03/01 01:16:06;;;;;;;5.20;3.13;;;-3275.00;58.70;;;;;;6223808;28;20192;-60
2022/03/01 01:19:07;;;;;;;4.07;2.87;;;-3275.10;58.30;;;;;;6246759;28;20238;-60
2022/03/01 01:25:28;;;;;;;6.20;4.20;;;-3275.00;58.30;;;;;;6233604;28;20203;-59
2022/03/01 01:28:28;;;;;;;6.93;3.43;;;-3275.00;57.40;;;;;;6226496;28;20256;-59
2022/03/01 01:31:29;;;;;;;6.40;3.63;;;-3275.10;57.50;;;;;;6234452;28;20222;-59
2022/03/01 01:34:30;;;;;;;5.17;3.77;;;-3275.10;57.70;;;;;;6248162;28;20199;-60
2022/03/01 01:37:31;;;;;;;5.60;4.03;;;-3275.10;57.40;;;;;;6228999;28;20193;-58
2022/03/01 01:40:34;;;;;;;4.93;3.17;;;-3275.20;56.80;;;;;;6244157;28;20190;-59
2022/03/01 01:43:35;;;;;;;4.47;3.07;;;-3275.20;57.20;;;;;;6244113;28;20191;-59
2022/03/01 01:46:35;;;;;;;5.33;3.63;;;-3275.10;57.70;;;;;;6249927;28;20259;-59
2022/03/01 01:49:36;;;;;;;5.23;3.27;;;-3275.10;58.10;;;;;;6217359;28;20194;-59
2022/03/01 01:52:37;;;;;;;4.97;3.47;;;-3275.00;58.20;;;;;;6252406;28;20226;-59
2022/03/01 01:55:38;;;;;;;5.07;3.17;;;-3275.00;58.50;;;;;;6235027;28;20192;-59
2022/03/01 01:58:39;;;;;;;6.23;3.30;;;-3275.00;58.70;;;;;;6235940;28;20181;-59
2022/03/01 02:01:40;;;;;;;6.13;3.20;;;-3274.90;59.10;;;;;;6234895;28;20290;-59
2022/03/01 02:04:41;;;;;;;7.67;3.60;;;-3274.80;59.20;;;;;;6212389;28;20198;-59
2022/03/01 02:07:48;;;;;;;4.37;3.40;;;-3274.80;59.10;;;;;;6227435;28;20202;-56
2022/03/01 02:10:48;;;;;;;5.37;3.33;;;-3274.80;59.00;;;;;;6238178;28;20308;-56
2022/03/01 02:13:49;;;;;;;4.80;3.27;;;-3274.80;58.90;;;;;;6230312;28;20244;-56
2022/03/01 02:16:50;;;;;;;4.87;2.90;;;-3274.80;59.00;;;;;;6251735;28;20281;-55
2022/03/01 02:19:52;;;;;;;6.93;3.40;;;-3274.80;59.00;;;;;;6287055;28;20255;-57
2022/03/01 02:22:54;;;;;;;4.57;3.20;;;-3274.80;59.30;;;;;;6239936;28;20197;-56
2022/03/01 02:25:55;;;;;;;4.80;3.20;;;-3274.80;59.30;;;;;;6235113;28;20214;-57
2022/03/01 02:28:56;;;;;;;8.37;4.37;;;-3274.80;59.10;;;;;;6234882;28;20199;-56
2022/03/01 02:32:00;;;;;;;6.47;3.97;;;-3274.90;58.80;;;;;;6235058;28;20213;-56
2022/03/01 02:35:01;;;;;;;8.20;4.23;;;-3274.90;58.40;;;;;;6250825;28;20206;-56
2022/03/01 02:38:03;;;;;;;7.20;3.90;;;-3275.00;57.60;;;;;;6230239;28;20192;-57
2022/03/01 02:41:04;;;;;;;9.90;4.20;;;-3275.00;58.20;;;;;;6222417;28;20204;-53
2022/03/01 02:44:06;;;;;;;4.97;3.37;;;-3275.00;58.00;;;;;;6251224;28;20193;-54
2022/03/01 02:47:07;;;;;;;4.53;3.27;;;-3275.10;57.70;;;;;;6250250;28;20546;-60
2022/03/01 02:50:09;;;;;;;6.43;3.60;;;-3275.10;57.60;;;;;;6225015;28;20192;-60
2022/03/01 02:53:10;;;;;;;6.17;3.33;;;-3275.00;57.60;;;;;;6245504;28;20223;-60
2022/03/01 02:56:11;;;;;;;6.23;3.87;;;-3275.10;56.60;;;;;;6234393;28;20198;-60
2022/03/01 02:59:12;;;;;;;7.13;4.10;;;-3275.20;55.90;;;;;;6228004;28;20201;-60
2022/03/01 03:02:15;;;;;;;6.13;3.90;;;-3275.20;55.80;;;;;;6210343;28;20190;-60
2022/03/01 03:05:16;;;;;;;7.73;3.57;;;-3275.20;55.30;;;;;;6209984;28;20278;-60
2022/03/01 03:08:17;;;;;;;6.10;3.73;;;-3275.20;55.50;;;;;;6209628;28;20253;-61
2022/03/01 03:11:18;;;;;;;7.90;4.33;;;-3275.20;55.70;;;;;;6209961;28;20212;-56
2022/03/01 03:14:19;;;;;;;5.87;4.00;;;-3275.20;56.00;;;;;;6209817;28;20191;-54
2022/03/01 03:17:20;;;;;;;6.00;4.23;;;-3275.30;55.70;;;;;;6218014;28;20248;-58
2022/03/01 03:20:22;;;;;;;6.93;3.37;;;-3275.30;55.70;;;;;;6233320;28;20230;-59
2022/03/01 03:23:23;;;;;;;5.70;3.73;;;-3275.20;56.00;;;;;;6233413;28;20187;-59
2022/03/01 03:26:23;;;;;;;7.43;3.90;;;-3275.30;56.20;;;;;;6209657;28;20190;-62
2022/03/01 03:29:24;;;;;;;5.37;3.40;;;-3275.20;56.50;;;;;;6208182;28;20188;-58
2022/03/01 03:32:25;;;;;;;5.37;3.23;;;-3275.10;56.40;;;;;;6236234;28;20229;-60
2022/03/01 03:35:27;;;;;;;5.23;3.30;;;-3275.00;57.50;;;;;;6254981;28;20528;-53
2022/03/01 03:38:28;;;;;;;7.63;3.90;;;-3274.90;57.70;;;;;;6225228;28;20228;-59
2022/03/01 03:41:29;;;;;;;6.50;4.40;;;-3274.80;57.90;;;;;;6249608;28;20195;-60
2022/03/01 03:44:30;;;;;;;5.13;3.43;;;-3274.80;58.20;;;;;;6225413;28;20180;-59
2022/03/01 03:47:31;;;;;;;7.33;4.17;;;-3274.70;58.60;;;;;;6231157;28;20226;-59
2022/03/01 03:50:32;;;;;;;5.07;3.37;;;-3274.70;58.60;;;;;;6265861;28;20199;-56
2022/03/01 03:53:33;;;;;;;6.13;3.47;;;-3274.70;58.30;;;;;;6249621;28;20194;-57
2022/03/01 03:56:34;;;;;;;5.80;3.73;;;-3274.70;58.20;;;;;;6245614;28;20244;-59
2022/03/01 03:59:36;;;;;;;7.53;3.43;;;-3274.70;58.30;;;;;;6226182;28;20206;-59
2022/03/01 04:02:37;;;;;;;6.33;3.87;;;-3274.80;58.30;;;;;;6237256;28;20207;-59
2022/03/01 04:05:38;;;;;;;6.23;3.83;;;-3274.70;58.60;;;;;;6236443;28;20207;-59
2022/03/01 04:08:39;;;;;;;6.13;3.60;;;-3274.70;58.80;;;;;;6236185;28;20202;-59
2022/03/01 04:11:39;;;;;;;4.40;3.20;;;-3274.70;58.80;;;;;;6248288;28;20224;-56
2022/03/01 04:14:40;;;;;;;6.50;3.63;;;-3274.70;58.90;;;;;;6245131;28;20200;-53
2022/03/01 04:17:41;;;;;;;9.10;3.70;;;-3274.70;58.70;;;;;;6247444;28;20208;-56
2022/03/01 04:20:42;;;;;;;6.47;3.87;;;-3274.70;58.20;;;;;;6243273;28;20246;-56
2022/03/01 04:23:43;;;;;;;5.83;4.13;;;-3274.70;58.30;;;;;;6234295;28;20202;-55
2022/03/01 04:26:44;;;;;;;5.57;3.70;;;-3274.70;58.80;;;;;;6220639;28;20200;-55
2022/03/01 04:29:45;;;;;;;5.93;3.40;;;-3274.60;59.50;;;;;;6236158;28;20208;-54
2022/03/01 04:32:46;;;;;;;8.93;4.43;;;-3274.60;59.60;;;;;;6226676;28;20215;-54
2022/03/01 04:35:47;;;;;;;4.80;3.53;;;-3274.60;60.00;;;;;;6224136;28;20253;-56
2022/03/01 04:38:48;;;;;;;5.23;3.40;;;-3274.50;59.80;;;;;;6229970;28;20194;-57
2022/03/01 04:41:49;;;;;;;8.13;3.97;;;-3274.40;60.10;;;;;;6232055;28;20199;-55
2022/03/01 04:44:50;;;;;;;5.63;3.47;;;-3274.40;60.40;;;;;;6234116;28;20197;-53
2022/03/01 04:47:51;;;;;;;5.73;3.80;;;-3274.40;60.70;;;;;;6243884;28;20201;-55
2022/03/01 04:50:52;;;;;;;6.33;3.77;;;-3274.30;61.20;;;;;;6248879;28;20226;-56
2022/03/01 04:53:53;;;;;;;5.83;3.37;;;-3274.20;61.50;;;;;;6229658;28;20205;-54
2022/03/01 04:56:54;;;;;;;5.13;3.60;;;-3274.20;61.50;;;;;;6232130;28;20187;-58
2022/03/01 04:59:55;;;;;;;4.83;3.20;;;-3274.20;61.60;;;;;;6231991;28;20171;-58
2022/03/01 05:02:55;;;;;;;6.40;3.50;;;-3274.10;61.60;;;;;;6226936;28;20206;-57
2022/03/01 05:05:56;;;;;;;4.93;3.27;;;-3274.10;61.70;;;;;;6232912;28;20277;-56
2022/03/01 05:08:57;;;;;;;6.87;3.70;;;-3274.00;61.90;;;;;;6229671;28;20200;-57
2022/03/01 05:11:58;;;;;;;6.67;3.70;;;-3274.00;62.10;;;;;;6212134;28;20220;-57
2022/03/01 05:14:58;;;;;;;5.77;3.97;;;-3274.00;62.00;;;;;;6212000;28;20220;-57
2022/03/01 05:17:59;;;;;;;7.93;3.83;;;-3274.00;61.90;;;;;;6222332;28;20184;-57
2022/03/01 05:21:00;;;;;;;5.60;3.83;;;-3274.10;62.00;;;;;;6253098;28;20332;-57
2022/03/01 05:24:02;;;;;;;5.80;3.40;;;-3274.00;62.30;;;;;;6236037;28;20199;-58
2022/03/01 05:27:03;;;;;;;5.90;3.53;;;-3273.90;62.50;;;;;;6252545;28;20187;-59
2022/03/01 05:30:06;;;;;;;4.30;3.20;;;-3274.00;62.60;;;;;;6244539;28;20203;-60
2022/03/01 05:33:07;;;;;;;8.30;4.10;;;-3273.90;62.90;;;;;;6250629;28;20222;-59
2022/03/01 05:36:08;;;;;;;5.37;3.30;;;-3273.90;63.20;;;;;;6246787;28;20191;-59
2022/03/01 05:39:09;;;;;;;6.87;3.90;;;-3273.90;63.30;;;;;;6235012;28;20279;-59
2022/03/01 05:42:09;;;;;;;6.77;3.37;;;-3273.90;63.50;;;;;;6231163;28;20255;-60
2022/03/01 05:45:11;;;;;;;7.97;3.60;;;-3273.90;63.50;;;;;;6245697;28;20195;-59
2022/03/01 05:48:12;;;;;;;5.90;3.63;;;-3273.90;63.50;;;;;;6245278;28;20226;-57
2022/03/01 05:51:15;;;;;;;6.13;3.37;;;-3273.80;63.90;;;;;;6224800;28;20225;-60
2022/03/01 05:54:15;;;;;;;7.03;4.30;;;-3273.80;63.80;;;;;;6223640;28;20195;-60
2022/03/01 05:57:16;;;;;;;5.63;4.10;;;-3273.70;64.20;;;;;;6265390;28;20205;-59
2022/03/01 06:00:19;;;;;;;5.67;4.00;;;-3273.80;64.10;;;;;;6243177;28;20227;-60
2022/03/01 06:03:20;;;;;;;6.17;4.10;;;-3273.80;64.20;;;;;;6222610;28;20211;-60
2022/03/01 06:06:20;;;;;;;6.77;3.73;;;-3274.00;64.20;;;;;;6245000;28;20238;-59
2022/03/01 06:09:21;;;;;;;5.93;3.77;;;-3274.00;63.00;;;;;;6232965;28;20202;-59
2022/03/01 06:12:22;;;;;;;5.70;4.00;;;-3273.90;63.40;;;;;;6244975;28;20226;-59
2022/03/01 06:15:23;;;;;;;8.90;3.47;;;-3273.80;64.00;;;;;;6245970;28;20194;-60
2022/03/01 06:18:24;;;;;;;5.20;4.10;;;-3273.80;64.30;;;;;;6226347;28;20221;-59
2022/03/01 06:21:25;;;;;;;6.63;3.50;;;-3273.80;64.40;;;;;;6251763;28;20202;-60
2022/03/01 06:24:27;;;;;;;6.83;3.63;;;-3273.80;64.50;;;;;;6252192;28;20204;-59
2022/03/01 06:27:28;;;;;;;5.83;3.40;;;-3273.90;64.30;;;;;;6248299;28;20199;-59
2022/03/01 06:30:28;;;;;;;9.20;4.07;;;-3273.90;64.40;;;;;;6264821;28;20199;-59
2022/03/01 06:33:29;;;;;;;6.80;4.07;;;-3274.00;64.30;;;;;;6231596;28;20297;-59
2022/03/01 06:36:30;;;;;;;5.57;3.90;;;-3274.00;64.00;;;;;;6248560;28;20238;-59
2022/03/01 06:39:32;;;;;;;8.47;4.23;;;-3274.00;63.70;;;;;;6245223;28;20190;-59
2022/03/01 06:42:34;;;;;;;6.73;4.23;;;-3274.10;63.10;;;;;;6248615;28;20186;-59
2022/03/01 06:45:35;;;;;;;8.67;4.97;;;-3274.20;62.40;;;;;;6247799;28;20265;-59
2022/03/01 06:48:36;;;;;;;6.50;4.23;;;-3274.30;62.60;;;;;;6253447;28;20203;-59
2022/03/01 06:51:36;;;;;;;7.30;4.27;;;-3274.30;62.60;;;;;;6247679;28;20226;-59
2022/03/01 06:54:37;;;;;;;8.60;3.60;;;-3274.40;62.70;;;;;;6227736;28;20285;-59
2022/03/01 06:57:41;;;;;;;5.53;3.37;;;-3274.40;62.90;;;;;;6248482;28;20207;-60
2022/03/01 07:00:42;;;;;;;5.47;3.50;;;-3274.50;62.80;;;;;;6242016;28;20200;-60
2022/03/01 07:03:43;;;;;;;5.37;3.90;;;-3274.60;62.60;;;;;;6232780;28;20233;-59
2022/03/01 07:06:43;;;;;;;5.10;3.40;;;-3274.70;62.00;;;;;;6232434;28;20237;-61
2022/03/01 07:09:44;;;;;;;6.00;4.27;;;-3274.80;60.20;;;;;;6249452;28;20593;-61
2022/03/01 07:12:46;;;;;;;5.63;3.70;;;-3274.90;59.70;;;;;;6232371;28;20238;-59
2022/03/01 07:15:47;;;;;;;5.30;4.17;;;-3275.00;59.40;;;;;;6269212;28;20187;-59
2022/03/01 07:18:47;;;;;;;7.47;4.67;;;-3275.10;59.30;;;;;;6231742;28;20290;-59
2022/03/01 07:21:48;;;;;;;8.43;4.07;;;-3275.10;58.70;;;;;;6230993;28;20210;-59
2022/03/01 07:24:49;;;;;;;5.77;3.70;;;-3275.20;58.10;;;;;;6232820;28;20219;-59
2022/03/01 07:27:51;;;;;;;7.67;4.30;;;-3275.30;57.90;;;;;;6231459;28;20197;-59
2022/03/01 07:30:52;;;;;;;7.10;4.53;;;-3275.40;57.60;;;;;;6247573;28;20228;-59
2022/03/01 07:33:53;;;;;;;7.20;4.37;;;-3275.30;57.30;;;;;;6246706;28;20192;-60
2022/03/01 07:36:54;;;;;;;7.37;4.70;;;-3275.40;56.90;;;;;;6247757;28;20200;-59
2022/03/01 07:39:55;;;;;;;5.30;3.53;;;-3275.50;56.70;;;;;;6231374;28;20248;-60
2022/03/01 07:42:56;;;;;;;4.80;3.97;;;-3275.50;56.40;;;;;;6230681;28;20194;-60
2022/03/01 07:45:57;;;;;;;8.17;3.70;;;-3275.60;56.20;;;;;;6246290;28;20233;-60
2022/03/01 07:48:58;;;;;;;6.00;3.63;;;-3275.70;56.00;;;;;;6230983;28;20197;-60
2022/03/01 07:51:58;;;;;;;5.97;4.30;;;-3275.70;55.60;;;;;;6253122;28;20231;-60
2022/03/01 07:54:59;;;;;;;7.57;3.83;;;-3275.80;55.60;;;;;;6224915;28;20197;-60
2022/03/01 07:58:00;;;;;;;8.40;4.57;;;-3275.80;55.20;;;;;;6246842;28;20195;-60
2022/03/01 08:01:01;;;;;;;7.07;4.33;;;-3275.90;55.20;;;;;;6262554;28;20292;-60
2022/03/01 08:04:02;;;;;;;7.77;5.07;;;-3276.00;55.10;;;;;;6248755;28;20196;-60
2022/03/01 08:07:03;;;;;;;5.77;4.03;;;-3276.10;55.30;;;;;;6250329;28;20284;-60
2022/03/01 08:10:05;;;;;;;10.57;5.03;;;-3276.20;55.20;;;;;;6247217;28;20190;-60
2022/03/01 08:13:05;;;;;;;7.63;4.37;;;-3276.30;54.60;;;;;;6226298;28;20309;-60
2022/03/01 08:16:06;;;;;;;6.27;4.27;;;-3276.30;53.70;;;;;;6229174;28;20232;-60
2022/03/01 08:19:07;;;;;;;5.37;3.47;;;-3276.50;53.20;;;;;;6253392;28;20261;-60
2022/03/01 08:22:09;;;;;;;13.00;4.17;;;-3276.60;52.80;;;;;;6229686;28;20212;-60
2022/03/01 08:25:10;;;;;;;6.47;4.13;;;-3276.70;51.80;;;;;;6246117;28;20196;-60
2022/03/01 08:28:12;;;;;;;5.87;4.23;;;0.00;51.00;;;;;;6245097;28;20574;-60
2022/03/01 08:31:13;;;;;;;7.17;3.80;;;0.10;51.00;;;;;;6245668;28;20222;-60
2022/03/01 08:34:14;;;;;;;6.17;4.27;;;0.10;50.90;;;;;;6262200;28;20194;-60
2022/03/01 08:37:15;;;;;;;6.53;3.77;;;0.30;50.60;;;;;;6230519;28;20301;-60
2022/03/01 08:40:18;;;;;;;6.57;4.23;;;0.40;50.90;;;;;;6246138;28;20290;-60
2022/03/01 08:43:21;;;;;;;4.03;3.27;;;0.40;50.60;;;;;;6234749;28;20185;-60
2022/03/01 08:46:23;;;;;;;7.67;4.23;;;0.50;50.50;;;;;;6213490;28;20289;-60
2022/03/01 08:49:24;;;;;;;7.67;3.87;;;0.70;49.80;;;;;;6245094;28;20213;-59
2022/03/01 08:52:26;;;;;;;6.60;3.93;;;0.70;49.80;;;;;;6238809;28;20226;-59
2022/03/01 08:55:27;;;;;;;4.97;3.63;;;0.90;48.80;;;;;;6245016;28;20199;-59
2022/03/01 08:58:28;;;;;;;5.17;3.47;;;1.00;48.60;;;;;;6245787;28;20255;-59
2022/03/01 09:01:28;;;;;;;6.07;3.53;;;1.10;48.50;;;;;;6246814;28;20208;-58
2022/03/01 09:04:29;;;;;;;6.73;3.73;;;1.20;48.70;;;;;;6228032;28;20296;-59
2022/03/01 09:07:30;;;;;;;5.43;3.47;;;1.50;48.00;;;;;;6245312;28;20232;-58
2022/03/01 09:10:31;;;;;;;5.90;4.00;;;1.80;47.00;;;;;;6246621;28;20297;-59
2022/03/01 09:13:32;;;;;;;3.80;3.10;;;1.80;46.60;;;;;;6246160;28;20224;-59
2022/03/01 09:16:33;;;;;;;5.87;3.83;;;1.90;46.70;;;;;;6228681;28;20194;-59
2022/03/01 09:19:34;;;;;;;4.87;3.60;;;2.00;45.90;;;;;;6244736;28;20448;-59
2022/03/01 09:22:34;;;;;;;6.93;3.60;;;2.20;45.40;;;;;;6244678;28;20204;-59
2022/03/01 09:25:35;;;;;;;7.63;3.63;;;2.20;45.30;;;;;;6229368;28;20296;-59
2022/03/01 09:28:36;;;;;;;5.43;3.73;;;2.20;44.90;;;;;;6230374;28;20199;-59
2022/03/01 09:31:37;;;;;;;3.93;3.20;;;2.20;44.80;;;;;;6227703;28;20275;-59
2022/03/01 09:34:37;;;;;;;5.63;3.47;;;2.20;46.60;;;;;;6245701;28;20203;-59
2022/03/01 09:37:39;;;;;;;4.87;3.47;;;2.20;44.80;;;;;;6246367;28;20230;-59
2022/03/01 09:40:40;;;;;;;5.83;3.43;;;2.30;45.60;;;;;;6228194;28;20203;-59
2022/03/01 09:43:42;;;;;;;3.77;2.57;;;2.30;43.80;;;;;;6227934;28;20255;-59
2022/03/01 09:46:43;;;;;;;3.83;2.73;;;2.50;42.40;;;;;;6250488;28;20187;-59
2022/03/01 09:49:44;;;;;;;2.70;2.30;;;2.60;41.00;;;;;;6244876;28;20190;-59
2022/03/01 09:52:45;;;;;;;2.67;2.43;;;2.70;41.60;;;;;;6229302;28;20256;-59
2022/03/01 09:55:46;;;;;;;4.20;2.80;;;2.70;42.70;;;;;;6244238;28;20190;-59
2022/03/01 09:58:48;;;;;;;3.87;2.70;;;2.60;42.40;;;;;;6231789;28;20297;-59
2022/03/01 10:01:50;;;;;;;3.17;2.57;;;2.70;42.50;;;;;;6231808;28;20205;-59
2022/03/01 10:04:57;;;;;;;3.80;2.70;;;2.80;42.40;;;;;;6264730;28;20198;-59
2022/03/01 10:08:10;;;;;;;5.87;2.80;;;2.80;42.60;;;;;;6265143;28;20207;-59
2022/03/01 10:11:11;;;;;;;5.03;2.90;;;2.90;41.40;;;;;;6248410;28;20249;-59
2022/03/01 10:14:13;;;;;;;4.10;2.70;;;3.00;41.50;;;;;;6233304;28;20222;-59
2022/03/01 10:17:16;;;;;;;4.27;2.63;;;3.00;42.50;;;;;;6249859;28;20248;-59
2022/03/01 10:20:19;;;;;;;4.63;2.97;;;3.20;41.70;;;;;;6226615;28;20338;-59
2022/03/01 10:23:23;;;;;;;4.70;3.10;;;3.30;42.10;;;;;;6266524;28;20221;-59
2022/03/01 10:26:31;;;;;;;4.13;2.80;;;3.40;41.40;;;;;;6233434;28;20206;-59
2022/03/01 10:29:32;;;;;;;4.93;2.63;;;3.50;41.30;;;;;;6260761;28;20352;-59
2022/03/01 10:32:34;;;;;;;7.27;3.00;;;3.60;41.00;;;;;;6232813;28;20222;-59
2022/03/01 10:35:36;;;;;;;3.83;2.33;;;3.90;40.10;;;;;;6248389;28;20187;-59
2022/03/01 10:38:39;;;;;;;5.97;3.40;;;3.90;39.00;;;;;;6248413;28;20205;-59
2022/03/01 10:41:41;;;;;;;4.87;2.60;;;4.20;39.30;;;;;;6232560;28;20208;-59
2022/03/01 10:44:44;;;;;;;3.90;2.90;;;4.10;39.30;;;;;;6249040;28;20205;-59
2022/03/01 10:47:53;;;;;;;4.27;3.10;;;4.30;38.00;;;;;;6232400;28;20202;-59
2022/03/01 10:51:10;;;;;;;3.27;2.43;;;4.40;38.80;;;;;;6248158;28;20199;-59
2022/03/01 10:54:10;;;;;;;3.80;2.77;;;4.70;38.10;;;;;;6245845;28;20183;-59
2022/03/01 10:57:22;;;;;;;2.70;2.23;;;4.60;38.40;;;;;;6232380;28;20217;-59
2022/03/01 11:00:23;;;;;;;3.17;2.30;;;4.60;37.80;;;;;;6243347;28;20294;-59
2022/03/01 11:03:24;;;;;;;3.83;2.73;;;4.70;38.10;;;;;;6264235;28;20226;-59
2022/03/01 11:06:26;;;;;;;3.67;2.70;;;4.70;37.70;;;;;;6247203;28;20216;-59
2022/03/01 11:09:29;;;;;;;4.90;2.70;;;4.70;37.30;;;;;;6247703;28;20263;-59
2022/03/01 11:12:30;;;;;;;3.83;2.90;;;5.00;37.40;;;;;;6248591;28;20229;-59
2022/03/01 11:15:58;;;;;;;5.13;3.47;;;5.00;36.80;;;;;;6230553;28;20197;-59
2022/03/01 11:19:18;;;;;;;3.33;2.70;;;5.00;36.90;;;;;;6246682;28;20730;-59
2022/03/01 11:22:25;;;;;;;5.47;3.03;;;5.10;37.60;;;;;;6240028;28;20232;-59
2022/03/01 11:25:30;;;;;;;3.73;2.63;;;5.30;37.40;;;;;;6247704;28;20289;-59
2022/03/01 11:28:40;;;;;;;4.47;2.90;;;5.30;37.30;;;;;;6247400;28;20202;-59
2022/03/01 11:31:42;;;;;;;4.00;2.67;;;5.80;36.90;;;;;;6248064;28;20381;-59
2022/03/01 11:34:44;;;;;;;4.43;3.13;;;6.10;35.10;;;;;;6246108;28;20195;-59
2022/03/01 11:37:46;;;;;;;4.13;2.60;;;6.10;34.60;;;;;;6247396;28;20199;-59
2022/03/01 11:40:52;;;;;;;4.23;2.70;;;6.10;35.20;;;;;;6247013;28;20202;-60
2022/03/01 11:43:57;;;;;;;4.80;3.17;;;5.90;34.50;;;;;;6251624;28;20194;-59
2022/03/01 11:46:57;;;;;;;3.73;2.87;;;6.20;34.80;;;;;;6247805;28;20201;-60
2022/03/01 11:50:18;;;;;;;4.63;2.57;;;6.30;33.00;;;;;;6212044;28;20193;-60
2022/03/01 11:53:20;;;;;;;3.93;2.87;;;6.50;33.40;;;;;;6246951;28;20286;-61
2022/03/01 11:56:21;;;;;;;4.03;2.57;;;6.80;34.20;;;;;;6248119;28;20214;-61
2022/03/01 11:59:22;;;;;;;4.90;2.50;;;6.90;34.20;;;;;;6247236;28;20248;-61
2022/03/01 12:02:27;;;;;;;3.57;2.77;;;7.20;32.30;;;;;;6245135;28;20198;-58
2022/03/01 12:05:29;;;;;;;4.37;3.43;;;7.50;32.10;;;;;;6262547;28;20211;-60
2022/03/01 12:08:29;;;;;;;3.63;2.70;;;7.80;31.00;;;;;;6229872;28;20198;-60
2022/03/01 12:11:42;;;;;;;4.80;3.03;;;8.00;31.90;;;;;;6225574;28;20228;-60
2022/03/01 12:14:54;;;;;;;3.07;2.60;;;8.30;31.40;;;;;;6247071;28;20210;-60
2022/03/01 12:17:55;;;;;;;4.10;2.87;;;8.40;30.10;;;;;;6248752;28;20712;-60
2022/03/01 12:21:05;;;;;;;4.63;3.13;;;8.60;30.70;;;;;;6231779;28;20247;-60
2022/03/01 12:24:08;;;;;;;4.57;3.20;;;8.90;30.20;;;;;;6240785;28;20179;-60
2022/03/01 12:27:10;;;;;;;5.63;3.23;;;9.10;30.00;;;;;;6268945;28;20277;-60
2022/03/01 12:30:12;;;;;;;3.70;3.27;;;9.30;29.70;;;;;;6273397;28;20212;-60
2022/03/01 12:33:15;;;;;;;5.20;3.23;;;9.50;28.10;;;;;;6257019;28;20209;-59
2022/03/01 12:36:34;;;;;;;6.67;3.77;;;9.50;28.50;;;;;;6226343;28;20191;-59
2022/03/01 12:39:36;;;;;;;3.67;3.07;;;9.80;27.30;;;;;;6247834;28;20240;-60
2022/03/01 12:42:37;;;;;;;4.03;2.90;;;10.80;27.30;;;;;;6260708;28;20224;-58
2022/03/01 12:45:44;;;;;;;3.97;3.20;;;12.40;24.90;;;;;;6234300;28;20233;-59
2022/03/01 12:48:45;;;;;;;6.70;3.73;;;14.40;22.90;;;;;;6240330;28;20334;-59
2022/03/01 12:51:47;;;;;;;4.00;3.30;;;17.10;21.20;;;;;;6218915;28;20214;-58
2022/03/01 12:54:50;;;;;;;3.40;3.10;;;19.00;19.00;;;;;;6230808;28;20187;-61
2022/03/01 12:57:52;;;;;;;3.67;3.33;;;21.30;16.90;;;;;;6241084;28;20190;-60
2022/03/01 13:01:02;;;;;;;5.30;3.43;;;23.50;15.80;;;;;;6227227;28;20199;-60
2022/03/01 13:04:06;;;;;;;6.17;3.00;;;24.90;14.60;;;;;;6246837;28;20281;-57
2022/03/01 13:07:07;;;;;;;3.80;3.40;;;23.70;15.30;;;;;;6246218;28;20281;-58
2022/03/01 13:10:08;;;;;;;4.30;3.67;;;25.60;14.30;;;;;;6226552;28;20210;-59
2022/03/01 13:13:09;;;;;;;3.43;3.07;;;24.80;14.20;;;;;;6236831;28;20223;-58
2022/03/01 13:16:10;;;;;;;4.83;3.27;;;25.40;13.90;;;;;;6239441;28;20197;-58
2022/03/01 13:19:20;;;;;;;4.63;2.70;;;24.90;14.40;;;;;;6239276;28;20234;-58
2022/03/01 13:22:21;;;;;;;4.00;3.50;;;24.10;14.90;;;;;;6240883;28;20264;-58
2022/03/01 13:25:22;;;;;;;3.30;3.00;;;24.10;15.10;;;;;;6247536;28;20206;-58
2022/03/01 13:28:35;;;;;;;3.43;3.13;;;24.80;14.70;;;;;;6221838;28;20195;-58
2022/03/01 13:31:36;;;;;;;3.87;3.40;;;25.70;13.90;;;;;;6219669;28;20210;-58
2022/03/01 13:34:39;;;;;;;4.63;3.30;;;25.00;14.30;;;;;;6250025;28;20347;-57
2022/03/01 13:37:41;;;;;;;3.50;3.20;;;24.10;14.90;;;;;;6219294;28;20191;-57
2022/03/01 13:40:45;;;;;;;5.97;3.13;;;23.10;15.80;;;;;;6233792;28;20222;-57
2022/03/01 13:43:46;;;;;;;3.87;2.90;;;24.00;15.10;;;;;;6234080;28;20187;-57
2022/03/01 13:46:54;;;;;;;5.50;3.73;;;25.20;14.30;;;;;;6227952;28;20229;-57
2022/03/01 13:50:04;;;;;;;4.30;3.40;;;25.10;15.00;;;;;;6274388;28;20199;-58
2022/03/01 13:53:12;;;;;;;3.33;3.03;;;23.70;15.20;;;;;;6245734;28;20226;-58
2022/03/01 13:56:14;;;;;;;4.30;3.60;;;23.70;15.20;;;;;;6244504;28;20187;-58
2022/03/01 13:59:19;;;;;;;3.80;3.37;;;24.70;14.60;;;;;;6250301;28;20199;-58
2022/03/01 14:02:19;;;;;;;3.80;3.33;;;25.20;14.00;;;;;;6233393;28;20206;-58
2022/03/01 14:05:21;;;;;;;3.30;2.93;;;26.20;13.40;;;;;;6233500;28;20206;-58
2022/03/01 14:08:23;;;;;;;5.63;3.17;;;27.30;12.90;;;;;;6250102;28;20205;-58
2022/03/01 14:11:24;;;;;;;5.73;3.60;;;28.50;11.80;;;;;;6249163;28;20214;-57
2022/03/01 14:14:26;;;;;;;3.90;3.50;;;29.20;11.50;;;;;;6249328;28;20201;-57
2022/03/01 14:17:27;;;;;;;3.60;3.30;;;28.20;12.00;;;;;;6249956;28;20199;-58
2022/03/01 14:20:28;;;;;;;5.73;3.77;;;28.50;12.00;;;;;;6231103;28;20245;-58
2022/03/01 14:23:29;;;;;;;3.90;3.50;;;28.20;11.50;;;;;;6250717;28;20285;-58
2022/03/01 14:26:31;;;;;;;3.73;3.43;;;26.50;12.60;;;;;;6231936;28;20202;-58
2022/03/01 14:29:31;;;;;;;3.37;2.93;;;26.70;12.70;;;;;;6233282;28;20202;-58
2022/03/01 14:32:32;;;;;;;5.43;4.00;;;26.80;12.90;;;;;;6250905;28;20228;-58
2022/03/01 14:35:34;;;;;;;4.17;3.30;;;27.70;12.00;;;;;;6232534;28;20198;-58
2022/03/01 14:38:35;;;;;;;3.43;3.00;;;27.30;12.30;;;;;;6233005;28;20190;-58
2022/03/01 14:41:36;;;;;;;4.17;3.77;;;27.20;12.60;;;;;;6231248;28;20194;-58
2022/03/01 14:44:36;;;;;;;4.47;3.43;;;26.10;13.00;;;;;;6230866;28;20198;-58
2022/03/01 14:47:37;;;;;;;3.93;3.33;;;27.70;12.40;;;;;;6233186;28;20197;-58
2022/03/01 14:50:38;;;;;;;3.57;3.20;;;27.30;12.70;;;;;;6248213;28;20206;-58
2022/03/01 14:53:43;;;;;;;5.07;3.60;;;26.20;13.30;;;;;;6242661;28;20393;-58
2022/03/01 14:56:44;;;;;;;5.37;3.90;;;25.80;13.30;;;;;;6233157;28;20197;-57
2022/03/01 14:59:45;;;;;;;4.80;3.70;;;25.20;13.90;;;;;;6233583;28;20195;-57
2022/03/01 15:02:46;;;;;;;3.93;3.60;;;25.00;13.50;;;;;;6232000;28;20197;-57
2022/03/01 15:05:47;;;;;;;3.93;3.53;;;25.40;13.60;;;;;;6231499;28;20203;-57
2022/03/01 15:08:48;;;;;;;3.80;2.90;;;24.90;14.00;;;;;;6253846;28;20236;-57
2022/03/01 15:11:49;;;;;;;4.00;3.33;;;26.00;13.10;;;;;;6246737;28;20219;-57
2022/03/01 15:14:50;;;;;;;3.53;3.23;;;26.60;13.00;;;;;;6238412;28;20194;-57
2022/03/01 15:17:50;;;;;;;4.60;3.30;;;25.70;13.60;;;;;;6241585;28;20194;-57
2022/03/01 15:20:52;;;;;;;4.50;3.67;;;26.80;12.80;;;;;;6228044;28;20237;-58
2022/03/01 15:23:57;;;;;;;4.37;3.67;;;27.90;11.80;;;;;;6265555;28;20285;-58
2022/03/01 15:26:58;;;;;;;3.73;3.20;;;25.70;13.40;;;;;;6240704;28;20277;-58
2022/03/01 15:29:59;;;;;;;4.27;3.87;;;24.80;13.60;;;;;;6240885;28;20217;-58
2022/03/01 15:32:59;;;;;;;4.53;3.67;;;24.50;13.80;;;;;;6232288;28;20218;-58